Time;durP1;ratioP1;P1;durP2;ratioP2;P2;SDS_P1;SDS_P2;PMS_P1;PMS_P2;Temp;Humidity;BMP_temperature;BMP_pressure;BME280_temperature;BME280_humidity;BME280_pressure;Samples;Min_cycle;Max_cycle;Signal;HPM_P1;HPM_P2
2021/01/31 00:01:38;;;;;;;2.20;2.00;;;19.90;33.50;;;;;;5077807;28;20035;-47
2021/01/31 00:04:04;;;;;;;3.70;1.80;;;19.90;33.50;;;;;;5077790;28;20115;-46
2021/01/31 00:06:30;;;;;;;2.55;2.05;;;19.90;33.40;;;;;;5077447;28;20025;-49
2021/01/31 00:08:55;;;;;;;2.67;2.15;;;19.90;33.40;;;;;;5078024;28;20028;-48
2021/01/31 00:11:21;;;;;;;2.47;2.28;;;19.90;33.30;;;;;;5077510;28;20029;-46
2021/01/31 00:13:47;;;;;;;2.40;2.20;;;19.90;33.30;;;;;;5077569;28;20418;-51
2021/01/31 00:16:13;;;;;;;2.50;2.30;;;19.80;33.20;;;;;;5077186;28;20055;-49
2021/01/31 00:18:38;;;;;;;2.33;2.05;;;19.80;33.10;;;;;;5077428;28;20117;-51
2021/01/31 00:21:04;;;;;;;2.70;2.40;;;19.80;33.10;;;;;;5077575;28;20339;-47
2021/01/31 00:23:30;;;;;;;2.15;1.92;;;19.70;33.00;;;;;;5076815;28;20112;-47
2021/01/31 00:25:56;;;;;;;3.47;2.28;;;19.70;33.00;;;;;;5077697;28;20025;-51
2021/01/31 00:28:25;;;;;;;2.30;2.10;;;19.70;33.00;;;;;;5076912;28;20108;-51
2021/01/31 00:30:51;;;;;;;2.55;2.20;;;19.70;32.90;;;;;;5077117;28;20025;-48
2021/01/31 00:33:22;;;;;;;2.25;2.05;;;19.60;32.90;;;;;;5077296;28;20099;-50
2021/01/31 00:35:49;;;;;;;2.58;2.30;;;19.60;32.80;;;;;;5076750;28;20146;-51
2021/01/31 00:38:17;;;;;;;4.30;2.70;;;19.60;32.80;;;;;;5076777;28;20025;-52
2021/01/31 00:40:43;;;;;;;2.25;2.13;;;19.50;32.70;;;;;;5076935;28;20043;-53
2021/01/31 00:43:09;;;;;;;2.53;2.30;;;19.50;32.70;;;;;;5076961;28;20036;-49
2021/01/31 00:45:34;;;;;;;2.22;2.13;;;19.50;32.70;;;;;;5077038;28;20433;-49
2021/01/31 00:48:00;;;;;;;2.40;2.20;;;19.50;32.60;;;;;;5077102;28;20025;-50
2021/01/31 00:50:31;;;;;;;4.05;2.30;;;19.40;32.60;;;;;;5076858;28;20070;-49
2021/01/31 00:52:56;;;;;;;2.05;1.95;;;19.40;32.60;;;;;;5076460;28;20466;-44
2021/01/31 00:55:23;;;;;;;2.55;2.35;;;19.40;32.50;;;;;;5076814;28;20040;-49
2021/01/31 00:57:49;;;;;;;2.70;2.50;;;19.40;32.50;;;;;;5076602;28;20141;-46
2021/01/31 01:00:27;;;;;;;2.60;2.40;;;19.30;32.50;;;;;;5076558;28;20020;-49
2021/01/31 01:02:53;;;;;;;2.72;2.53;;;19.30;32.50;;;;;;5076192;28;20514;-47
2021/01/31 01:05:20;;;;;;;2.55;2.35;;;19.30;32.50;;;;;;5076085;28;20023;-47
2021/01/31 01:07:46;;;;;;;2.90;2.70;;;19.30;32.50;;;;;;5076934;28;20021;-51
2021/01/31 01:10:13;;;;;;;2.75;2.55;;;19.20;32.40;;;;;;5075896;28;20082;-44
2021/01/31 01:12:39;;;;;;;2.70;2.50;;;19.20;32.40;;;;;;5076336;28;20020;-49
2021/01/31 01:15:07;;;;;;;2.75;2.53;;;19.20;32.40;;;;;;5076171;28;20098;-44
2021/01/31 01:17:33;;;;;;;2.40;2.20;;;19.20;32.30;;;;;;5076297;28;20039;-47
2021/01/31 01:19:58;;;;;;;2.50;2.30;;;19.10;32.30;;;;;;5058816;28;20036;-47
2021/01/31 01:22:24;;;;;;;3.67;2.50;;;19.10;32.30;;;;;;5076267;28;20459;-45
2021/01/31 01:24:52;;;;;;;3.47;2.72;;;19.10;32.30;;;;;;5076394;28;20028;-45
2021/01/31 01:27:19;;;;;;;2.42;2.20;;;19.00;32.20;;;;;;5076045;28;20020;-47
2021/01/31 01:29:45;;;;;;;2.58;2.38;;;19.00;32.20;;;;;;5076006;28;20347;-43
2021/01/31 01:32:11;;;;;;;2.67;2.47;;;19.00;32.20;;;;;;5075729;28;20020;-46
2021/01/31 01:34:37;;;;;;;2.85;2.65;;;19.00;32.20;;;;;;5075752;28;20036;-43
2021/01/31 01:37:03;;;;;;;2.55;2.35;;;19.00;32.20;;;;;;5075842;28;20028;-47
2021/01/31 01:39:28;;;;;;;4.05;2.50;;;18.90;32.20;;;;;;5076212;28;20020;-47
2021/01/31 01:41:54;;;;;;;2.97;2.78;;;18.90;32.20;;;;;;5075777;28;20107;-50
2021/01/31 01:44:19;;;;;;;2.50;2.30;;;18.90;32.20;;;;;;5076111;28;20032;-44
2021/01/31 01:46:49;;;;;;;3.53;2.40;;;18.90;32.20;;;;;;5075380;28;20082;-46
2021/01/31 01:49:20;;;;;;;2.60;2.40;;;18.80;32.10;;;;;;5075060;28;20024;-44
2021/01/31 01:52:01;;;;;;;2.80;2.60;;;18.80;32.10;;;;;;5075247;28;20447;-47
2021/01/31 01:54:35;;;;;;;2.53;2.25;;;18.80;32.10;;;;;;5075124;28;20532;-49
2021/01/31 01:57:05;;;;;;;2.72;2.53;;;18.80;32.10;;;;;;5075533;28;20032;-45
2021/01/31 01:59:31;;;;;;;3.10;2.90;;;18.70;32.10;;;;;;5075408;28;20035;-50
2021/01/31 02:02:17;;;;;;;2.80;2.60;;;18.70;32.10;;;;;;5075425;28;20032;-45
2021/01/31 02:04:44;;;;;;;2.90;2.70;;;18.70;32.10;;;;;;5075364;28;20024;-43
2021/01/31 02:07:10;;;;;;;3.13;2.85;;;18.60;32.10;;;;;;5075302;28;20017;-47
2021/01/31 02:09:37;;;;;;;2.50;2.30;;;18.60;32.00;;;;;;5076365;28;20024;-45
2021/01/31 02:12:05;;;;;;;3.05;2.75;;;18.60;32.00;;;;;;5075095;28;20378;-47
2021/01/31 02:14:32;;;;;;;3.20;2.90;;;18.60;32.00;;;;;;5075199;28;20036;-45
2021/01/31 02:17:04;;;;;;;2.55;2.33;;;18.60;32.00;;;;;;5074913;28;20387;-47
2021/01/31 02:20:05;;;;;;;2.17;2.07;;;18.50;32.00;;;;;;5074935;28;20063;-49
2021/01/31 02:23:09;;;;;;;3.50;2.80;;;18.60;32.00;;;;;;5075348;28;20127;-47
2021/01/31 02:25:45;;;;;;;2.58;2.38;;;18.50;32.00;;;;;;5075406;28;20043;-50
2021/01/31 02:28:35;;;;;;;3.00;2.70;;;18.50;32.00;;;;;;5075452;28;20021;-54
2021/01/31 02:31:28;;;;;;;3.13;2.90;;;18.50;32.10;;;;;;5074729;28;20474;-49
2021/01/31 02:34:03;;;;;;;2.78;2.58;;;18.40;32.00;;;;;;5074859;28;20457;-44
2021/01/31 02:37:02;;;;;;;2.78;2.58;;;18.40;32.00;;;;;;5074724;28;20444;-45
2021/01/31 02:39:51;;;;;;;3.10;2.80;;;18.40;32.00;;;;;;5074946;28;20035;-44
2021/01/31 02:42:52;;;;;;;3.13;2.78;;;18.30;31.90;;;;;;5075259;28;20028;-45
2021/01/31 02:45:40;;;;;;;3.40;2.92;;;18.30;31.90;;;;;;5057659;28;20469;-45
2021/01/31 02:48:23;;;;;;;2.90;2.70;;;18.30;31.90;;;;;;5075062;28;20033;-47
2021/01/31 02:50:57;;;;;;;2.63;2.30;;;18.30;32.00;;;;;;5074708;28;20359;-48
2021/01/31 02:54:06;;;;;;;3.00;2.78;;;18.30;31.90;;;;;;5074797;28;20087;-47
2021/01/31 02:56:40;;;;;;;2.72;2.53;;;18.20;31.90;;;;;;5074656;28;20032;-46
2021/01/31 02:59:11;;;;;;;3.05;2.75;;;18.20;31.90;;;;;;5074978;28;20128;-47
2021/01/31 03:01:44;;;;;;;3.33;2.70;;;18.20;31.90;;;;;;5075365;28;20031;-45
2021/01/31 03:04:23;;;;;;;3.10;2.85;;;18.20;32.00;;;;;;5079006;28;20436;-47
2021/01/31 03:06:59;;;;;;;2.80;2.47;;;18.20;31.90;;;;;;5078835;28;20050;-50
2021/01/31 03:09:40;;;;;;;3.10;2.80;;;18.10;31.80;;;;;;5079099;28;20020;-52
2021/01/31 03:12:15;;;;;;;3.00;2.80;;;18.10;31.80;;;;;;5078630;28;20032;-54
2021/01/31 03:14:44;;;;;;;3.05;2.75;;;18.10;31.90;;;;;;5078591;28;20040;-49
2021/01/31 03:17:55;;;;;;;3.28;2.97;;;18.10;31.80;;;;;;5078116;28;20090;-52
2021/01/31 03:20:22;;;;;;;3.03;2.72;;;18.10;31.90;;;;;;4977849;28;20039;-52
2021/01/31 03:22:55;;;;;;;3.03;2.75;;;18.00;31.80;;;;;;4977589;28;20054;-47
2021/01/31 03:25:35;;;;;;;3.45;3.03;;;18.00;31.80;;;;;;5030369;28;20127;-47
2021/01/31 03:28:00;;;;;;;3.30;3.00;;;18.00;31.80;;;;;;5078380;28;20021;-48
2021/01/31 03:30:26;;;;;;;2.83;2.63;;;18.00;31.80;;;;;;5078410;28;20036;-48
2021/01/31 03:32:58;;;;;;;2.83;2.63;;;18.00;31.80;;;;;;5078643;28;20086;-50
2021/01/31 03:35:43;;;;;;;3.15;2.92;;;18.00;31.80;;;;;;5078059;28;20076;-50
2021/01/31 03:38:28;;;;;;;3.40;3.10;;;17.90;31.80;;;;;;5078070;28;20362;-46
2021/01/31 03:41:03;;;;;;;3.75;3.45;;;18.00;31.80;;;;;;5078144;28;20043;-46
2021/01/31 03:43:29;;;;;;;3.95;2.85;;;17.90;31.80;;;;;;5078116;28;20025;-50
2021/01/31 03:46:12;;;;;;;3.45;3.15;;;17.90;31.80;;;;;;5078649;28;20093;-44
2021/01/31 03:48:51;;;;;;;3.47;3.17;;;17.90;31.80;;;;;;5077953;28;20024;-45
2021/01/31 03:51:17;;;;;;;3.20;2.90;;;17.80;31.80;;;;;;5077950;28;20384;-48
2021/01/31 03:53:42;;;;;;;3.53;3.22;;;17.80;31.70;;;;;;5077648;28;20458;-52
2021/01/31 03:56:12;;;;;;;3.25;2.95;;;17.80;31.70;;;;;;5077824;28;20017;-50
2021/01/31 03:58:41;;;;;;;3.25;2.95;;;17.80;31.70;;;;;;5078137;28;20040;-46
2021/01/31 04:01:07;;;;;;;3.25;2.95;;;17.80;31.70;;;;;;5060678;28;20364;-45
2021/01/31 04:03:47;;;;;;;3.60;2.75;;;17.80;31.70;;;;;;5077693;28;20473;-44
2021/01/31 04:06:19;;;;;;;3.60;3.20;;;17.80;31.70;;;;;;5077672;28;20162;-49
2021/01/31 04:08:52;;;;;;;3.40;3.10;;;17.80;31.70;;;;;;5078057;28;20029;-48
2021/01/31 04:11:39;;;;;;;3.35;3.05;;;17.80;31.70;;;;;;5077556;28;20427;-43
2021/01/31 04:14:14;;;;;;;3.20;2.92;;;17.70;31.70;;;;;;5077209;28;20040;-46
2021/01/31 04:16:45;;;;;;;3.97;3.22;;;17.70;31.80;;;;;;5077770;28;20047;-47
2021/01/31 04:19:12;;;;;;;3.22;2.92;;;17.70;31.80;;;;;;5077269;28;20051;-45
2021/01/31 04:21:38;;;;;;;3.83;3.10;;;17.70;31.80;;;;;;5077432;28;20039;-45
2021/01/31 04:24:04;;;;;;;3.28;2.95;;;17.70;31.80;;;;;;5077208;28;20340;-48
2021/01/31 04:26:30;;;;;;;3.20;2.75;;;17.70;31.80;;;;;;5077002;28;20372;-48
2021/01/31 04:28:55;;;;;;;3.10;2.75;;;17.70;31.80;;;;;;5077212;28;20033;-42
2021/01/31 04:31:21;;;;;;;3.15;2.85;;;17.70;31.80;;;;;;5077773;28;20082;-45
2021/01/31 04:33:46;;;;;;;2.90;2.70;;;17.70;31.80;;;;;;5077022;28;20024;-45
2021/01/31 04:36:12;;;;;;;2.60;2.40;;;17.70;31.80;;;;;;5077432;28;20052;-43
2021/01/31 04:38:38;;;;;;;3.17;2.88;;;17.70;31.70;;;;;;5077260;28;20025;-46
2021/01/31 04:41:03;;;;;;;2.63;2.42;;;17.70;31.70;;;;;;5077114;28;20028;-45
2021/01/31 04:43:29;;;;;;;3.47;3.08;;;17.70;31.70;;;;;;5076790;28;20024;-49
2021/01/31 04:45:56;;;;;;;2.55;2.35;;;17.70;31.60;;;;;;5077405;28;20027;-47
2021/01/31 04:48:43;;;;;;;3.08;2.78;;;17.80;31.70;;;;;;5076858;28;20020;-46
2021/01/31 04:51:11;;;;;;;3.13;2.83;;;17.70;31.60;;;;;;5077237;28;20145;-44
2021/01/31 04:54:05;;;;;;;3.45;3.13;;;17.70;31.60;;;;;;5076760;28;20029;-43
2021/01/31 04:57:01;;;;;;;2.73;2.53;;;17.70;31.60;;;;;;5077208;28;20052;-47
2021/01/31 04:59:37;;;;;;;3.28;2.85;;;17.80;31.70;;;;;;5076403;28;20414;-49
2021/01/31 05:02:17;;;;;;;3.45;3.15;;;17.70;31.60;;;;;;5076980;28;20048;-45
2021/01/31 05:04:58;;;;;;;3.00;2.80;;;17.70;31.60;;;;;;5076626;28;20043;-49
2021/01/31 05:07:52;;;;;;;3.08;2.78;;;17.70;31.60;;;;;;5076607;28;20102;-45
2021/01/31 05:10:18;;;;;;;3.40;3.10;;;17.70;31.60;;;;;;5071315;28;20037;-44
2021/01/31 05:13:09;;;;;;;2.92;2.53;;;17.60;32.30;;;;;;5076755;28;20511;-45
2021/01/31 05:16:03;;;;;;;3.28;2.97;;;17.60;31.60;;;;;;5076275;28;20051;-46
2021/01/31 05:18:29;;;;;;;;;;;17.70;31.70;;;;;;5038250;28;20036;-46
2021/01/31 05:20:58;;;;;;;3.00;2.78;;;17.60;31.60;;;;;;5076595;28;20281;-45
2021/01/31 05:23:25;;;;;;;2.92;2.60;;;17.60;31.60;;;;;;5076641;28;20115;-46
2021/01/31 05:25:50;;;;;;;3.17;2.78;;;17.60;31.60;;;;;;5075175;28;20032;-47
2021/01/31 05:28:16;;;;;;;2.88;2.67;;;17.60;31.60;;;;;;5075854;28;20115;-47
2021/01/31 05:30:44;;;;;;;3.20;2.90;;;17.70;31.60;;;;;;5076111;28;20017;-44
2021/01/31 05:33:18;;;;;;;3.17;2.88;;;17.60;31.60;;;;;;5075859;28;20458;-46
2021/01/31 05:35:47;;;;;;;3.55;3.08;;;17.70;31.60;;;;;;5076074;28;20063;-50
2021/01/31 05:38:32;;;;;;;2.83;2.63;;;17.60;31.60;;;;;;5075839;28;20052;-45
2021/01/31 05:40:57;;;;;;;3.30;3.00;;;17.70;31.60;;;;;;5075899;28;20443;-50
2021/01/31 05:43:26;;;;;;;3.10;2.90;;;17.70;31.60;;;;;;5075896;28;20059;-44
2021/01/31 05:45:52;;;;;;;3.22;2.92;;;17.70;31.60;;;;;;5075543;28;20447;-47
2021/01/31 05:48:25;;;;;;;2.70;2.50;;;17.70;31.60;;;;;;5075582;28;20025;-44
2021/01/31 05:50:52;;;;;;;3.35;3.05;;;17.60;31.50;;;;;;5075555;28;20073;-46
2021/01/31 05:53:34;;;;;;;3.03;2.83;;;17.70;31.50;;;;;;5076115;28;20086;-50
2021/01/31 05:56:24;;;;;;;3.20;2.90;;;17.70;31.50;;;;;;5075536;28;20045;-51
2021/01/31 05:58:52;;;;;;;3.08;2.70;;;17.70;31.50;;;;;;5075588;28;20063;-46
2021/01/31 06:01:18;;;;;;;2.90;2.70;;;17.60;31.50;;;;;;5075548;28;20406;-51
2021/01/31 06:03:44;;;;;;;3.00;2.80;;;17.60;31.50;;;;;;5075485;28;20032;-50
2021/01/31 06:06:13;;;;;;;3.80;2.90;;;17.60;31.40;;;;;;5075440;28;20490;-50
2021/01/31 06:08:42;;;;;;;3.08;2.83;;;17.70;31.60;;;;;;5075379;28;20165;-53
2021/01/31 06:11:21;;;;;;;2.72;2.53;;;17.70;31.50;;;;;;5075782;28;20066;-53
2021/01/31 06:14:13;;;;;;;3.30;3.00;;;17.70;31.50;;;;;;5074510;28;20033;-45
2021/01/31 06:16:39;;;;;;;3.30;3.00;;;17.60;31.50;;;;;;5075627;28;20024;-49
2021/01/31 06:19:09;;;;;;;3.20;2.90;;;17.60;31.50;;;;;;5075539;28;20025;-53
2021/01/31 06:21:46;;;;;;;2.85;2.65;;;17.60;31.50;;;;;;5074922;28;20032;-51
2021/01/31 06:24:21;;;;;;;2.90;2.65;;;17.60;31.40;;;;;;5075610;28;20029;-47
2021/01/31 06:26:47;;;;;;;3.00;2.72;;;17.70;31.50;;;;;;5075191;28;20451;-49
2021/01/31 06:29:19;;;;;;;2.70;2.47;;;17.60;31.50;;;;;;5075286;28;20037;-45
2021/01/31 06:31:53;;;;;;;3.17;2.88;;;17.60;31.70;;;;;;5075101;28;20100;-50
2021/01/31 06:34:19;;;;;;;3.03;2.72;;;17.70;31.40;;;;;;5075051;28;20098;-46
2021/01/31 06:37:12;;;;;;;3.05;2.78;;;17.60;31.40;;;;;;5074490;28;20029;-44
2021/01/31 06:39:56;;;;;;;2.55;2.35;;;17.70;31.50;;;;;;5074951;28;20032;-50
2021/01/31 06:42:47;;;;;;;3.15;2.75;;;17.60;31.40;;;;;;5075482;28;20103;-46
2021/01/31 06:45:21;;;;;;;3.00;2.70;;;17.70;31.40;;;;;;5074573;28;20024;-46
2021/01/31 06:48:17;;;;;;;2.92;2.60;;;17.70;31.50;;;;;;5075018;28;20021;-44
2021/01/31 06:51:04;;;;;;;3.00;2.80;;;17.60;31.30;;;;;;5075033;28;20039;-53
2021/01/31 06:53:50;;;;;;;3.13;2.90;;;17.60;31.30;;;;;;5074757;28;20032;-50
2021/01/31 06:56:34;;;;;;;3.47;3.15;;;17.60;31.30;;;;;;5075575;28;20045;-53
2021/01/31 06:59:30;;;;;;;2.95;2.75;;;17.60;31.30;;;;;;5057113;28;20055;-47
2021/01/31 07:02:09;;;;;;;2.80;2.60;;;17.70;31.30;;;;;;5074871;28;20031;-45
2021/01/31 07:04:58;;;;;;;2.60;2.40;;;17.70;31.30;;;;;;5074768;28;20024;-45
2021/01/31 07:07:48;;;;;;;3.28;2.97;;;17.70;31.30;;;;;;5074748;28;20482;-46
2021/01/31 07:10:42;;;;;;;3.28;2.70;;;17.60;31.30;;;;;;5074659;28;20024;-45
2021/01/31 07:13:16;;;;;;;4.60;3.47;;;17.60;31.30;;;;;;5075011;28;20035;-51
2021/01/31 07:16:10;;;;;;;2.97;2.78;;;17.60;31.20;;;;;;5075072;28;20087;-44
2021/01/31 07:18:46;;;;;;;3.28;2.83;;;17.60;31.20;;;;;;5074791;28;20432;-49
2021/01/31 07:21:24;;;;;;;3.45;3.15;;;17.60;31.30;;;;;;5074611;28;20024;-45
2021/01/31 07:23:52;;;;;;;3.53;3.22;;;17.70;31.30;;;;;;5074538;28;20396;-46
2021/01/31 07:26:46;;;;;;;3.30;3.00;;;17.60;31.30;;;;;;5074794;28;20025;-49
2021/01/31 07:29:21;;;;;;;3.30;3.00;;;17.70;31.30;;;;;;5074541;28;20434;-49
2021/01/31 07:31:48;;;;;;;3.72;3.42;;;17.70;31.30;;;;;;5074840;28;20021;-47
2021/01/31 07:34:23;;;;;;;3.47;3.17;;;17.70;31.30;;;;;;5074405;28;20060;-47
2021/01/31 07:37:08;;;;;;;3.88;3.58;;;17.60;31.20;;;;;;5074150;28;20379;-46
2021/01/31 07:40:07;;;;;;;3.33;3.05;;;17.70;31.60;;;;;;5074799;28;20035;-47
2021/01/31 07:42:36;;;;;;;5.68;3.38;;;17.60;31.50;;;;;;5074684;28;20031;-48
2021/01/31 07:45:29;;;;;;;9.00;3.90;;;17.60;31.90;;;;;;5075209;28;20546;-49
2021/01/31 07:48:27;;;;;;;7.35;3.25;;;17.60;32.70;;;;;;5070972;28;20089;-48
2021/01/31 07:50:53;;;;;;;10.35;3.40;;;17.70;32.60;;;;;;5078247;28;20024;-46
2021/01/31 07:53:27;;;;;;;12.45;3.78;;;17.60;32.40;;;;;;5078225;28;20347;-49
2021/01/31 07:55:53;;;;;;;14.00;4.60;;;17.60;32.30;;;;;;5078104;28;20519;-45
2021/01/31 07:58:24;;;;;;;14.30;3.72;;;17.70;33.40;;;;;;5077816;28;20048;-45
2021/01/31 08:00:52;;;;;;;9.77;3.35;;;17.70;32.90;;;;;;5078365;28;20070;-51
2021/01/31 08:03:29;;;;;;;8.10;3.50;;;17.60;32.60;;;;;;5077373;28;20351;-49
2021/01/31 08:06:07;;;;;;;10.88;3.58;;;17.70;32.60;;;;;;5077796;28;20025;-45
2021/01/31 08:08:42;;;;;;;13.63;4.07;;;17.70;32.60;;;;;;5077966;28;20035;-48
2021/01/31 08:13:45;;;;;;;5.90;3.58;;;17.70;32.60;;;;;;5014503;28;20287;-48
2021/01/31 08:16:47;;;;;;;6.65;3.55;;;17.70;32.80;;;;;;5017483;28;20038;-49
2021/01/31 08:19:31;;;;;;;10.45;3.63;;;17.80;32.60;;;;;;5017467;28;20030;-47
2021/01/31 08:22:32;;;;;;;8.52;3.97;;;17.80;32.60;;;;;;5016691;28;20017;-49
2021/01/31 08:25:07;;;;;;;9.98;3.58;;;17.90;32.60;;;;;;5017295;28;20030;-48
2021/01/31 08:27:38;;;;;;;7.32;3.40;;;17.80;32.60;;;;;;5017957;28;20105;-46
2021/01/31 08:30:34;;;;;;;3.28;2.90;;;17.90;32.60;;;;;;5017316;28;20040;-50
2021/01/31 08:33:06;;;;;;;4.95;3.40;;;17.80;32.60;;;;;;5017409;28;20022;-46
2021/01/31 08:35:43;;;;;;;5.95;3.38;;;17.90;32.60;;;;;;5017644;28;20049;-49
2021/01/31 08:38:11;;;;;;;6.60;3.03;;;17.90;32.60;;;;;;5017046;28;20033;-50
2021/01/31 08:40:37;;;;;;;5.13;2.63;;;17.90;32.60;;;;;;5017698;28;20034;-47
2021/01/31 08:43:03;;;;;;;4.85;2.65;;;18.00;32.80;;;;;;5017209;28;20037;-46
2021/01/31 08:45:44;;;;;;;11.38;2.78;;;18.00;32.80;;;;;;5017692;28;20032;-47
2021/01/31 08:48:10;;;;;;;7.13;2.70;;;18.00;32.70;;;;;;5017373;28;20025;-47
2021/01/31 08:50:36;;;;;;;2.90;2.30;;;18.10;32.80;;;;;;5016813;28;20444;-46
2021/01/31 08:53:03;;;;;;;6.28;2.10;;;18.10;32.80;;;;;;5017072;28;20029;-44
2021/01/31 08:55:28;;;;;;;3.28;2.13;;;18.10;32.90;;;;;;5017029;28;20108;-50
2021/01/31 08:58:00;;;;;;;2.90;2.15;;;18.10;32.90;;;;;;5016945;28;20106;-46
2021/01/31 09:00:27;;;;;;;2.50;2.22;;;18.10;32.90;;;;;;5016497;28;20026;-47
2021/01/31 09:02:53;;;;;;;3.13;2.38;;;18.20;33.00;;;;;;5017331;28;20022;-46
2021/01/31 09:05:20;;;;;;;4.25;2.05;;;18.20;33.00;;;;;;5017082;28;20033;-50
2021/01/31 09:07:49;;;;;;;2.92;2.00;;;18.20;33.10;;;;;;5016901;28;20022;-51
2021/01/31 09:10:24;;;;;;;3.80;2.10;;;18.30;33.10;;;;;;5016782;28;20192;-48
2021/01/31 09:12:49;;;;;;;4.32;2.17;;;18.30;33.20;;;;;;5016913;28;20042;-53
2021/01/31 09:15:23;;;;;;;2.40;1.75;;;18.30;33.20;;;;;;5016814;28;20176;-48
2021/01/31 09:17:48;;;;;;;;;;;18.40;33.30;;;;;;5016752;28;20021;-49
2021/01/31 09:20:27;;;;;;;3.67;1.73;;;18.40;33.30;;;;;;5016654;28;20448;-49
2021/01/31 09:22:57;;;;;;;2.03;1.83;;;18.40;33.40;;;;;;5016208;28;20097;-46
2021/01/31 09:25:24;;;;;;;5.32;2.00;;;18.50;33.40;;;;;;5016447;28;20030;-50
2021/01/31 09:28:04;;;;;;;3.42;2.10;;;18.50;33.50;;;;;;5016140;28;20468;-48
2021/01/31 09:30:31;;;;;;;3.63;2.03;;;18.50;33.50;;;;;;5016533;28;20032;-48
2021/01/31 09:33:04;;;;;;;3.13;1.92;;;18.50;33.50;;;;;;4999120;28;20026;-49
2021/01/31 09:35:33;;;;;;;5.30;2.35;;;18.60;33.60;;;;;;5015827;28;20381;-51
2021/01/31 09:38:10;;;;;;;2.70;1.90;;;18.60;33.50;;;;;;5016062;28;20109;-48
2021/01/31 09:40:36;;;;;;;2.05;1.73;;;18.70;33.60;;;;;;5016289;28;20061;-48
2021/01/31 09:43:06;;;;;;;6.07;1.90;;;18.70;33.60;;;;;;5016175;28;20048;-49
2021/01/31 09:45:44;;;;;;;4.20;1.85;;;18.70;33.60;;;;;;5015641;28;20437;-51
2021/01/31 09:48:17;;;;;;;2.42;2.22;;;18.70;33.60;;;;;;5016052;28;20026;-45
2021/01/31 09:50:45;;;;;;;2.28;2.08;;;18.80;33.70;;;;;;5015759;28;20025;-48
2021/01/31 09:53:25;;;;;;;2.47;2.20;;;18.80;33.70;;;;;;5015989;28;20022;-50
2021/01/31 09:55:51;;;;;;;3.35;2.55;;;18.80;33.90;;;;;;5015759;28;20065;-49
2021/01/31 09:58:23;;;;;;;3.72;2.38;;;18.80;34.00;;;;;;5015515;28;20033;-46
2021/01/31 10:00:51;;;;;;;2.88;2.35;;;18.90;34.70;;;;;;5015966;28;20026;-49
2021/01/31 10:03:30;;;;;;;3.85;2.50;;;18.90;33.90;;;;;;5015138;28;20037;-47
2021/01/31 10:06:08;;;;;;;2.70;2.20;;;18.90;33.80;;;;;;5015845;28;20030;-50
2021/01/31 10:08:35;;;;;;;2.20;2.00;;;19.00;33.90;;;;;;5015707;28;20018;-52
2021/01/31 10:11:30;;;;;;;2.75;2.05;;;19.00;33.90;;;;;;5014615;28;20126;-47
2021/01/31 10:13:56;;;;;;;5.97;2.47;;;19.00;34.00;;;;;;5015247;28;20045;-51
2021/01/31 10:16:29;;;;;;;2.95;2.30;;;19.10;34.30;;;;;;5015707;28;20395;-48
2021/01/31 10:19:12;;;;;;;2.75;2.05;;;19.10;34.20;;;;;;5014693;28;20113;-47
2021/01/31 10:21:44;;;;;;;6.50;2.03;;;19.20;34.20;;;;;;5015463;28;20084;-48
2021/01/31 10:24:31;;;;;;;2.30;2.10;;;19.20;34.20;;;;;;5014985;28;20025;-47
2021/01/31 10:27:05;;;;;;;3.83;2.08;;;19.30;34.20;;;;;;5015366;28;20033;-47
2021/01/31 10:29:32;;;;;;;4.38;2.30;;;19.40;34.30;;;;;;5015733;28;20037;-50
2021/01/31 10:32:18;;;;;;;2.67;2.40;;;19.40;34.20;;;;;;5015449;28;20058;-45
2021/01/31 10:34:43;;;;;;;4.28;2.25;;;19.50;34.30;;;;;;5015591;28;20030;-51
2021/01/31 10:37:29;;;;;;;2.25;2.05;;;19.50;34.30;;;;;;5015238;28;20092;-48
2021/01/31 10:39:55;;;;;;;4.47;2.40;;;19.60;34.30;;;;;;5015290;28;20379;-45
2021/01/31 10:42:20;;;;;;;3.63;2.30;;;19.60;34.20;;;;;;5015301;28;20018;-50
2021/01/31 10:44:46;;;;;;;4.60;2.55;;;19.60;34.20;;;;;;5015393;28;20030;-49
2021/01/31 10:47:11;;;;;;;5.90;2.53;;;19.60;34.20;;;;;;5014957;28;20506;-48
2021/01/31 10:49:37;;;;;;;4.45;1.98;;;19.60;34.10;;;;;;5014820;28;20034;-51
2021/01/31 10:52:02;;;;;;;2.20;2.00;;;19.70;34.00;;;;;;5014866;28;20030;-51
2021/01/31 10:54:28;;;;;;;2.67;2.47;;;19.70;34.10;;;;;;5015310;28;20364;-50
2021/01/31 10:56:53;;;;;;;1.88;1.70;;;19.80;34.10;;;;;;5015533;28;20057;-51
2021/01/31 10:59:19;;;;;;;6.07;2.00;;;19.80;34.00;;;;;;5015130;28;20029;-50
2021/01/31 11:01:47;;;;;;;2.47;2.10;;;19.80;34.00;;;;;;5013323;28;20069;-47
2021/01/31 11:04:17;;;;;;;6.07;2.75;;;19.90;34.20;;;;;;5015023;28;20058;-50
2021/01/31 11:06:44;;;;;;;7.82;1.90;;;19.90;34.10;;;;;;5014885;28;20032;-51
2021/01/31 11:09:10;;;;;;;4.00;2.30;;;19.90;34.00;;;;;;5014854;28;20022;-49
2021/01/31 11:11:37;;;;;;;17.10;3.00;;;19.90;33.90;;;;;;5014872;28;20058;-49
2021/01/31 11:14:02;;;;;;;6.47;2.60;;;19.90;34.10;;;;;;5014549;28;20387;-48
2021/01/31 11:16:28;;;;;;;6.45;2.53;;;20.00;34.10;;;;;;5014284;28;20121;-45
2021/01/31 11:18:53;;;;;;;3.65;2.70;;;20.00;34.00;;;;;;5015060;28;20104;-49
2021/01/31 11:21:23;;;;;;;7.28;2.63;;;20.00;34.10;;;;;;5014575;28;20029;-45
2021/01/31 11:23:49;;;;;;;7.22;2.65;;;20.10;34.30;;;;;;5016801;28;20018;-46
2021/01/31 11:26:14;;;;;;;5.10;2.53;;;20.10;34.40;;;;;;5017497;28;20042;-48
2021/01/31 11:28:41;;;;;;;9.82;2.83;;;20.10;35.00;;;;;;5018605;28;20504;-49
2021/01/31 11:31:19;;;;;;;4.47;2.55;;;20.10;34.20;;;;;;5015640;28;20029;-48
2021/01/31 11:33:45;;;;;;;2.75;2.28;;;20.10;34.10;;;;;;5018476;28;20156;-48
2021/01/31 11:36:11;;;;;;;4.38;2.45;;;20.20;34.10;;;;;;5018284;28;20128;-47
2021/01/31 11:38:37;;;;;;;5.05;2.20;;;20.20;34.00;;;;;;5018364;28;20517;-46
2021/01/31 11:41:03;;;;;;;5.68;2.25;;;20.30;34.00;;;;;;5018524;28;20026;-48
2021/01/31 11:43:29;;;;;;;9.90;2.38;;;20.20;33.90;;;;;;5017813;28;20467;-48
2021/01/31 11:45:55;;;;;;;4.22;2.50;;;20.30;33.90;;;;;;5017363;28;20026;-48
2021/01/31 11:48:20;;;;;;;3.55;2.13;;;20.30;33.90;;;;;;5018132;28;20045;-49
2021/01/31 11:50:47;;;;;;;3.33;2.13;;;20.30;33.80;;;;;;5018144;28;20026;-50
2021/01/31 11:53:12;;;;;;;2.85;2.05;;;20.30;33.90;;;;;;5018213;28;20096;-47
2021/01/31 11:55:38;;;;;;;3.03;2.03;;;20.40;33.80;;;;;;5017956;28;20038;-47
2021/01/31 11:58:03;;;;;;;2.70;1.98;;;20.40;33.80;;;;;;5018204;28;20037;-47
2021/01/31 12:00:29;;;;;;;2.92;2.25;;;20.50;33.90;;;;;;5017915;28;20026;-47
2021/01/31 12:02:54;;;;;;;2.20;2.00;;;20.40;33.80;;;;;;5018177;28;20036;-48
2021/01/31 12:05:22;;;;;;;3.67;2.30;;;20.50;33.80;;;;;;5017931;28;20108;-46
2021/01/31 12:07:49;;;;;;;3.08;2.28;;;20.50;33.80;;;;;;5018059;28;20045;-48
2021/01/31 12:10:15;;;;;;;4.00;2.17;;;20.50;33.80;;;;;;5017871;28;20061;-46
2021/01/31 12:12:41;;;;;;;2.58;2.05;;;20.50;33.80;;;;;;4999032;28;20372;-54
2021/01/31 12:15:08;;;;;;;5.07;2.30;;;20.60;33.90;;;;;;5016957;28;20037;-51
2021/01/31 12:17:34;;;;;;;5.00;2.17;;;20.60;34.00;;;;;;5017680;28;20025;-51
2021/01/31 12:20:00;;;;;;;2.90;2.28;;;20.60;34.00;;;;;;5017659;28;20352;-51
2021/01/31 12:22:25;;;;;;;3.92;2.40;;;20.60;34.00;;;;;;5017113;28;20321;-54
2021/01/31 12:24:51;;;;;;;2.47;1.85;;;20.60;33.90;;;;;;5017239;28;20037;-50
2021/01/31 12:27:23;;;;;;;2.70;1.88;;;20.70;34.00;;;;;;5017333;28;20037;-52
2021/01/31 12:29:49;;;;;;;4.30;1.90;;;20.70;33.90;;;;;;5017044;28;20026;-50
2021/01/31 12:32:15;;;;;;;3.95;2.47;;;20.70;33.90;;;;;;5016918;28;20464;-49
2021/01/31 12:34:40;;;;;;;3.13;1.98;;;20.70;33.80;;;;;;5016863;28;20026;-52
2021/01/31 12:37:06;;;;;;;7.72;2.30;;;20.80;33.90;;;;;;5017397;28;20034;-50
2021/01/31 12:39:31;;;;;;;3.47;2.00;;;20.80;33.90;;;;;;5017274;28;20033;-51
2021/01/31 12:41:57;;;;;;;6.00;2.38;;;20.80;34.00;;;;;;5016227;28;20026;-53
2021/01/31 12:44:22;;;;;;;2.00;1.85;;;20.80;34.10;;;;;;5017092;28;20057;-52
2021/01/31 12:46:48;;;;;;;5.80;2.03;;;20.80;34.20;;;;;;5016807;28;20105;-52
2021/01/31 12:49:13;;;;;;;2.80;1.88;;;20.90;34.30;;;;;;5017087;28;20030;-55
2021/01/31 12:51:39;;;;;;;2.38;2.05;;;20.90;34.40;;;;;;5017045;28;20018;-51
2021/01/31 12:54:04;;;;;;;2.95;1.77;;;20.90;34.40;;;;;;5017097;28;20399;-52
2021/01/31 12:56:30;;;;;;;3.75;1.83;;;20.90;34.50;;;;;;5016641;28;20109;-50
2021/01/31 12:58:55;;;;;;;3.55;2.10;;;20.90;34.50;;;;;;5016580;28;20248;-52
2021/01/31 13:01:22;;;;;;;2.33;2.13;;;20.90;34.40;;;;;;5016906;28;20026;-51
2021/01/31 13:03:48;;;;;;;3.10;1.52;;;20.90;34.40;;;;;;5017153;28;20109;-53
2021/01/31 13:06:14;;;;;;;2.88;2.00;;;21.00;34.50;;;;;;5015166;28;20172;-49
2021/01/31 13:08:39;;;;;;;2.03;1.80;;;21.00;34.40;;;;;;5016333;28;20171;-48
2021/01/31 13:11:05;;;;;;;2.28;2.05;;;21.00;34.30;;;;;;5016718;28;20037;-52
2021/01/31 13:13:30;;;;;;;1.70;1.60;;;21.00;34.20;;;;;;5016985;28;20053;-53
2021/01/31 13:15:56;;;;;;;1.92;1.73;;;21.00;34.20;;;;;;5016514;28;20117;-53
2021/01/31 13:18:21;;;;;;;2.85;1.75;;;21.00;34.10;;;;;;4999377;28;20030;-53